sensor_id;sensor_type;location;lat;lon;timestamp;pressure;altitude;pressure_sealevel;temperature;humidity
70916;BME280;58557;50.982;-3.222;2023-02-13T00:02:22;102686.42;;;8.34;58.97
70916;BME280;58557;50.982;-3.222;2023-02-13T00:04:42;102684.02;;;8.43;58.27
70916;BME280;58557;50.982;-3.222;2023-02-13T00:07:08;102688.31;;;9.84;54.57
70916;BME280;58557;50.982;-3.222;2023-02-13T00:09:36;102690.84;;;10.06;53.74
70916;BME280;58557;50.982;-3.222;2023-02-13T00:12:00;102691.64;;;9.13;54.41
70916;BME280;58557;50.982;-3.222;2023-02-13T00:14:33;102683.42;;;10.16;51.68
70916;BME280;58557;50.982;-3.222;2023-02-13T00:16:51;102682.98;;;10.08;50.95
70916;BME280;58557;50.982;-3.222;2023-02-13T00:19:16;102684.03;;;10.45;51.57
70916;BME280;58557;50.982;-3.222;2023-02-13T00:21:42;102683.09;;;10.99;50.01
70916;BME280;58557;50.982;-3.222;2023-02-13T00:24:07;102679.97;;;10.69;49.83
70916;BME280;58557;50.982;-3.222;2023-02-13T00:26:37;102672.80;;;10.93;49.47
70916;BME280;58557;50.982;-3.222;2023-02-13T00:29:03;102675.19;;;11.76;48.05
70916;BME280;58557;50.982;-3.222;2023-02-13T00:31:24;102667.41;;;11.94;47.58
70916;BME280;58557;50.982;-3.222;2023-02-13T00:33:48;102669.01;;;11.79;47.22
70916;BME280;58557;50.982;-3.222;2023-02-13T00:36:17;102671.32;;;11.86;46.91
70916;BME280;58557;50.982;-3.222;2023-02-13T00:38:40;102668.03;;;11.83;46.70
70916;BME280;58557;50.982;-3.222;2023-02-13T00:41:11;102662.64;;;11.86;45.89
70916;BME280;58557;50.982;-3.222;2023-02-13T00:43:36;102666.56;;;10.12;50.20
70916;BME280;58557;50.982;-3.222;2023-02-13T00:46:02;102669.92;;;10.64;49.14
70916;BME280;58557;50.982;-3.222;2023-02-13T00:48:29;102673.24;;;11.29;48.43
70916;BME280;58557;50.982;-3.222;2023-02-13T00:50:52;102670.70;;;11.80;47.05
70916;BME280;58557;50.982;-3.222;2023-02-13T00:53:17;102664.88;;;11.63;47.36
70916;BME280;58557;50.982;-3.222;2023-02-13T00:55:38;102665.29;;;12.37;45.54
70916;BME280;58557;50.982;-3.222;2023-02-13T00:58:03;102661.62;;;12.35;45.10
70916;BME280;58557;50.982;-3.222;2023-02-13T01:00:30;102662.18;;;12.88;44.08
70916;BME280;58557;50.982;-3.222;2023-02-13T01:02:54;102663.25;;;12.36;45.18
70916;BME280;58557;50.982;-3.222;2023-02-13T01:05:24;102670.18;;;11.25;46.67
70916;BME280;58557;50.982;-3.222;2023-02-13T01:07:44;102664.41;;;11.73;46.51
70916;BME280;58557;50.982;-3.222;2023-02-13T01:10:10;102657.71;;;11.04;46.49
70916;BME280;58557;50.982;-3.222;2023-02-13T01:12:34;102658.27;;;11.82;46.09
70916;BME280;58557;50.982;-3.222;2023-02-13T01:15:00;102657.17;;;12.22;44.82
70916;BME280;58557;50.982;-3.222;2023-02-13T01:17:25;102652.60;;;12.48;44.83
70916;BME280;58557;50.982;-3.222;2023-02-13T01:19:51;102650.99;;;12.44;44.79
70916;BME280;58557;50.982;-3.222;2023-02-13T01:22:16;102655.70;;;11.89;46.21
70916;BME280;58557;50.982;-3.222;2023-02-13T01:24:42;102655.44;;;11.86;45.82
70916;BME280;58557;50.982;-3.222;2023-02-13T01:27:12;102654.18;;;12.03;45.54
70916;BME280;58557;50.982;-3.222;2023-02-13T01:29:33;102652.14;;;10.95;47.29
70916;BME280;58557;50.982;-3.222;2023-02-13T01:31:58;102656.77;;;11.24;47.08
70916;BME280;58557;50.982;-3.222;2023-02-13T01:34:23;102654.16;;;10.61;48.59
70916;BME280;58557;50.982;-3.222;2023-02-13T01:36:48;102650.57;;;10.49;48.39
70916;BME280;58557;50.982;-3.222;2023-02-13T01:39:16;102651.39;;;11.92;45.96
70916;BME280;58557;50.982;-3.222;2023-02-13T01:41:42;102648.19;;;12.22;45.03
70916;BME280;58557;50.982;-3.222;2023-02-13T01:46:38;102644.76;;;12.65;45.18
70916;BME280;58557;50.982;-3.222;2023-02-13T01:49:02;102647.14;;;12.71;43.97
70916;BME280;58557;50.982;-3.222;2023-02-13T01:51:25;102647.87;;;12.97;43.96
70916;BME280;58557;50.982;-3.222;2023-02-13T01:53:54;102647.80;;;12.75;43.26
70916;BME280;58557;50.982;-3.222;2023-02-13T01:56:17;102654.72;;;13.14;42.69
70916;BME280;58557;50.982;-3.222;2023-02-13T01:58:43;102657.67;;;12.42;44.26
70916;BME280;58557;50.982;-3.222;2023-02-13T02:01:07;102656.27;;;12.95;43.40
70916;BME280;58557;50.982;-3.222;2023-02-13T02:03:38;102652.96;;;12.96;43.25
70916;BME280;58557;50.982;-3.222;2023-02-13T02:05:57;102653.10;;;12.95;43.01
70916;BME280;58557;50.982;-3.222;2023-02-13T02:08:27;102659.38;;;12.07;44.91
70916;BME280;58557;50.982;-3.222;2023-02-13T02:10:47;102656.10;;;9.22;52.17
70916;BME280;58557;50.982;-3.222;2023-02-13T02:13:14;102657.11;;;9.13;54.10
70916;BME280;58557;50.982;-3.222;2023-02-13T02:15:38;102652.81;;;9.72;52.68
70916;BME280;58557;50.982;-3.222;2023-02-13T02:18:05;102654.10;;;8.69;52.70
70916;BME280;58557;50.982;-3.222;2023-02-13T02:32:45;102633.48;;;10.58;50.13
70916;BME280;58557;50.982;-3.222;2023-02-13T02:35:11;102637.52;;;10.90;48.89
70916;BME280;58557;50.982;-3.222;2023-02-13T02:37:42;102640.44;;;10.94;48.63
70916;BME280;58557;50.982;-3.222;2023-02-13T02:40:02;102639.70;;;10.88;48.18
70916;BME280;58557;50.982;-3.222;2023-02-13T02:42:24;102635.52;;;11.02;48.38
70916;BME280;58557;50.982;-3.222;2023-02-13T02:44:50;102632.18;;;10.58;48.27
70916;BME280;58557;50.982;-3.222;2023-02-13T02:47:19;102633.77;;;10.88;49.01
70916;BME280;58557;50.982;-3.222;2023-02-13T02:49:39;102627.23;;;10.38;48.98
70916;BME280;58557;50.982;-3.222;2023-02-13T02:52:07;102624.34;;;10.06;50.66
70916;BME280;58557;50.982;-3.222;2023-02-13T02:54:31;102627.36;;;10.34;50.41
70916;BME280;58557;50.982;-3.222;2023-02-13T02:57:02;102626.15;;;9.58;51.64
70916;BME280;58557;50.982;-3.222;2023-02-13T02:59:23;102625.61;;;10.30;50.55
70916;BME280;58557;50.982;-3.222;2023-02-13T03:01:43;102622.13;;;10.08;50.63
70916;BME280;58557;50.982;-3.222;2023-02-13T03:04:15;102618.63;;;10.29;49.83
70916;BME280;58557;50.982;-3.222;2023-02-13T03:06:39;102618.36;;;10.71;49.48
70916;BME280;58557;50.982;-3.222;2023-02-13T03:09:02;102614.24;;;11.16;48.04
70916;BME280;58557;50.982;-3.222;2023-02-13T03:11:25;102614.05;;;10.60;49.60
70916;BME280;58557;50.982;-3.222;2023-02-13T03:13:51;102615.70;;;11.22;46.55
70916;BME280;58557;50.982;-3.222;2023-02-13T03:16:19;102616.00;;;11.21;48.30
70916;BME280;58557;50.982;-3.222;2023-02-13T03:18:45;102615.85;;;9.52;51.26
70916;BME280;58557;50.982;-3.222;2023-02-13T03:21:14;102617.21;;;8.74;54.58
70916;BME280;58557;50.982;-3.222;2023-02-13T03:23:42;102618.61;;;8.38;55.85
70916;BME280;58557;50.982;-3.222;2023-02-13T03:26:06;102618.74;;;8.78;56.05
70916;BME280;58557;50.982;-3.222;2023-02-13T03:28:30;102619.93;;;8.42;56.29
70916;BME280;58557;50.982;-3.222;2023-02-13T03:30:57;102614.35;;;8.93;54.42
70916;BME280;58557;50.982;-3.222;2023-02-13T03:33:33;102610.63;;;9.79;52.62
70916;BME280;58557;50.982;-3.222;2023-02-13T03:35:46;102602.96;;;9.71;51.89
70916;BME280;58557;50.982;-3.222;2023-02-13T03:38:15;102601.07;;;9.81;51.87
70916;BME280;58557;50.982;-3.222;2023-02-13T03:40:37;102602.96;;;9.37;52.30
70916;BME280;58557;50.982;-3.222;2023-02-13T03:43:02;102602.43;;;9.38;52.67
70916;BME280;58557;50.982;-3.222;2023-02-13T03:45:24;102598.60;;;10.16;49.98
70916;BME280;58557;50.982;-3.222;2023-02-13T03:47:49;102603.23;;;10.84;49.43
70916;BME280;58557;50.982;-3.222;2023-02-13T03:50:13;102602.34;;;10.74;49.21
70916;BME280;58557;50.982;-3.222;2023-02-13T03:52:46;102593.98;;;9.40;51.31
70916;BME280;58557;50.982;-3.222;2023-02-13T03:55:05;102595.88;;;9.67;51.61
70916;BME280;58557;50.982;-3.222;2023-02-13T03:57:30;102593.04;;;8.76;53.86
70916;BME280;58557;50.982;-3.222;2023-02-13T04:00:00;102592.42;;;9.56;53.20
70916;BME280;58557;50.982;-3.222;2023-02-13T04:02:23;102589.95;;;9.11;53.10
70916;BME280;58557;50.982;-3.222;2023-02-13T04:04:53;102592.73;;;9.37;52.98
70916;BME280;58557;50.982;-3.222;2023-02-13T04:07:12;102592.95;;;8.18;56.20
70916;BME280;58557;50.982;-3.222;2023-02-13T04:09:41;102589.53;;;9.40;54.11
70916;BME280;58557;50.982;-3.222;2023-02-13T04:12:07;102590.27;;;9.89;52.16
70916;BME280;58557;50.982;-3.222;2023-02-13T04:14:32;102594.11;;;10.00;50.98
70916;BME280;58557;50.982;-3.222;2023-02-13T04:16:56;102592.87;;;10.00;50.07
70916;BME280;58557;50.982;-3.222;2023-02-13T04:19:18;102600.43;;;10.37;50.61
70916;BME280;58557;50.982;-3.222;2023-02-13T04:21:48;102598.31;;;10.52;49.86
70916;BME280;58557;50.982;-3.222;2023-02-13T04:24:08;102600.37;;;9.17;52.43
70916;BME280;58557;50.982;-3.222;2023-02-13T04:26:36;102598.43;;;10.80;49.84
70916;BME280;58557;50.982;-3.222;2023-02-13T04:28:59;102598.10;;;10.68;48.16
70916;BME280;58557;50.982;-3.222;2023-02-13T04:31:30;102596.28;;;9.15;52.17
70916;BME280;58557;50.982;-3.222;2023-02-13T04:33:50;102603.81;;;9.46;52.08
70916;BME280;58557;50.982;-3.222;2023-02-13T04:36:20;102601.65;;;10.39;50.45
70916;BME280;58557;50.982;-3.222;2023-02-13T04:38:41;102601.17;;;10.80;48.89
70916;BME280;58557;50.982;-3.222;2023-02-13T04:41:06;102593.23;;;11.08;47.65
70916;BME280;58557;50.982;-3.222;2023-02-13T04:43:32;102587.61;;;11.66;46.65
70916;BME280;58557;50.982;-3.222;2023-02-13T04:45:58;102589.20;;;10.45;48.77
70916;BME280;58557;50.982;-3.222;2023-02-13T04:48:28;102591.03;;;10.34;48.13
70916;BME280;58557;50.982;-3.222;2023-02-13T04:50:48;102591.48;;;11.48;46.46
70916;BME280;58557;50.982;-3.222;2023-02-13T04:53:14;102590.02;;;10.85;47.73
70916;BME280;58557;50.982;-3.222;2023-02-13T04:55:39;102584.17;;;10.88;47.15
70916;BME280;58557;50.982;-3.222;2023-02-13T04:58:05;102587.50;;;11.66;46.10
70916;BME280;58557;50.982;-3.222;2023-02-13T05:00:30;102591.44;;;10.95;47.29
70916;BME280;58557;50.982;-3.222;2023-02-13T05:03:03;102593.62;;;11.38;46.09
70916;BME280;58557;50.982;-3.222;2023-02-13T05:05:21;102598.88;;;11.80;45.79
70916;BME280;58557;50.982;-3.222;2023-02-13T05:07:46;102601.68;;;11.45;46.34
70916;BME280;58557;50.982;-3.222;2023-02-13T05:10:12;102601.78;;;11.44;47.36
70916;BME280;58557;50.982;-3.222;2023-02-13T05:12:37;102601.02;;;11.99;45.90
70916;BME280;58557;50.982;-3.222;2023-02-13T05:15:03;102596.29;;;10.56;47.05
70916;BME280;58557;50.982;-3.222;2023-02-13T05:17:28;102590.16;;;11.73;45.44
70916;BME280;58557;50.982;-3.222;2023-02-13T05:19:53;102595.81;;;11.59;45.71
70916;BME280;58557;50.982;-3.222;2023-02-13T05:22:18;102598.28;;;11.32;45.62
70916;BME280;58557;50.982;-3.222;2023-02-13T05:24:49;102595.59;;;12.11;44.94
70916;BME280;58557;50.982;-3.222;2023-02-13T05:27:09;102597.55;;;11.68;45.27
70916;BME280;58557;50.982;-3.222;2023-02-13T05:29:35;102594.63;;;10.54;47.70
70916;BME280;58557;50.982;-3.222;2023-02-13T05:32:00;102591.77;;;11.05;47.03
70916;BME280;58557;50.982;-3.222;2023-02-13T05:34:31;102586.75;;;11.87;46.06
70916;BME280;58557;50.982;-3.222;2023-02-13T05:36:57;102583.60;;;11.18;45.48
70916;BME280;58557;50.982;-3.222;2023-02-13T05:39:17;102589.27;;;10.70;47.90
70916;BME280;58557;50.982;-3.222;2023-02-13T05:41:44;102588.05;;;10.68;47.94
70916;BME280;58557;50.982;-3.222;2023-02-13T05:44:09;102579.34;;;10.22;49.83
70916;BME280;58557;50.982;-3.222;2023-02-13T05:46:35;102570.51;;;11.18;47.40
70916;BME280;58557;50.982;-3.222;2023-02-13T05:48:59;102568.00;;;11.04;47.26
70916;BME280;58557;50.982;-3.222;2023-02-13T05:51:25;102573.09;;;10.61;48.54
70916;BME280;58557;50.982;-3.222;2023-02-13T05:53:51;102576.19;;;10.17;50.09
70916;BME280;58557;50.982;-3.222;2023-02-13T05:56:15;102573.20;;;11.35;47.11
70916;BME280;58557;50.982;-3.222;2023-02-13T05:58:41;102569.11;;;11.97;46.50
70916;BME280;58557;50.982;-3.222;2023-02-13T06:01:08;102567.68;;;11.12;47.84
70916;BME280;58557;50.982;-3.222;2023-02-13T06:03:36;102567.79;;;10.91;47.81
70916;BME280;58557;50.982;-3.222;2023-02-13T06:06:03;102564.63;;;10.09;50.24
70916;BME280;58557;50.982;-3.222;2023-02-13T06:08:24;102561.99;;;10.35;50.16
70916;BME280;58557;50.982;-3.222;2023-02-13T06:10:49;102556.23;;;10.95;48.56
70916;BME280;58557;50.982;-3.222;2023-02-13T06:13:15;102552.36;;;11.15;47.85
70916;BME280;58557;50.982;-3.222;2023-02-13T06:15:40;102555.62;;;11.15;47.32
70916;BME280;58557;50.982;-3.222;2023-02-13T06:18:06;102559.12;;;10.89;47.89
70916;BME280;58557;50.982;-3.222;2023-02-13T06:20:31;102557.84;;;10.81;48.03
70916;BME280;58557;50.982;-3.222;2023-02-13T06:23:01;102555.82;;;11.20;47.74
70916;BME280;58557;50.982;-3.222;2023-02-13T06:25:23;102549.40;;;10.95;47.95
70916;BME280;58557;50.982;-3.222;2023-02-13T06:27:47;102546.99;;;11.04;48.97
70916;BME280;58557;50.982;-3.222;2023-02-13T06:30:14;102550.20;;;10.75;48.24
70916;BME280;58557;50.982;-3.222;2023-02-13T06:32:38;102554.86;;;10.58;48.73
70916;BME280;58557;50.982;-3.222;2023-02-13T06:35:05;102556.20;;;11.04;47.94
70916;BME280;58557;50.982;-3.222;2023-02-13T06:37:30;102554.49;;;10.95;47.25
70916;BME280;58557;50.982;-3.222;2023-02-13T06:39:59;102550.90;;;11.76;45.41
70916;BME280;58557;50.982;-3.222;2023-02-13T06:42:20;102552.17;;;11.35;46.40
70916;BME280;58557;50.982;-3.222;2023-02-13T06:44:45;102560.82;;;11.10;47.14
70916;BME280;58557;50.982;-3.222;2023-02-13T06:47:16;102560.93;;;11.92;45.35
70916;BME280;58557;50.982;-3.222;2023-02-13T06:49:42;102560.27;;;11.72;45.53
70916;BME280;58557;50.982;-3.222;2023-02-13T06:52:03;102560.46;;;11.57;46.48
70916;BME280;58557;50.982;-3.222;2023-02-13T06:54:33;102554.80;;;11.16;47.39
70916;BME280;58557;50.982;-3.222;2023-02-13T06:56:53;102555.72;;;10.89;47.14
70916;BME280;58557;50.982;-3.222;2023-02-13T06:59:19;102549.81;;;11.82;46.68
70916;BME280;58557;50.982;-3.222;2023-02-13T07:01:50;102561.09;;;12.02;45.21
70916;BME280;58557;50.982;-3.222;2023-02-13T07:04:15;102556.85;;;12.06;45.38
70916;BME280;58557;50.982;-3.222;2023-02-13T07:06:35;102552.15;;;12.18;44.44
70916;BME280;58557;50.982;-3.222;2023-02-13T07:09:00;102557.44;;;10.46;48.93
70916;BME280;58557;50.982;-3.222;2023-02-13T07:11:26;102554.83;;;11.52;45.98
70916;BME280;58557;50.982;-3.222;2023-02-13T07:13:52;102557.02;;;11.25;46.45
70916;BME280;58557;50.982;-3.222;2023-02-13T07:16:18;102561.54;;;11.04;47.18
70916;BME280;58557;50.982;-3.222;2023-02-13T07:18:43;102561.56;;;11.61;46.05
70916;BME280;58557;50.982;-3.222;2023-02-13T07:21:14;102565.97;;;11.72;46.97
70916;BME280;58557;50.982;-3.222;2023-02-13T07:23:39;102562.89;;;11.45;46.22
70916;BME280;58557;50.982;-3.222;2023-02-13T07:26:05;102561.29;;;11.97;45.35
70916;BME280;58557;50.982;-3.222;2023-02-13T07:28:26;102568.27;;;12.12;45.38
70916;BME280;58557;50.982;-3.222;2023-02-13T07:30:51;102571.53;;;12.12;45.93
70916;BME280;58557;50.982;-3.222;2023-02-13T07:33:16;102569.99;;;11.73;45.23
70916;BME280;58557;50.982;-3.222;2023-02-13T07:35:48;102574.97;;;10.76;46.66
70916;BME280;58557;50.982;-3.222;2023-02-13T07:38:08;102576.47;;;11.42;46.51
70916;BME280;58557;50.982;-3.222;2023-02-13T07:40:34;102575.48;;;11.08;46.31
70916;BME280;58557;50.982;-3.222;2023-02-13T07:43:04;102571.17;;;11.24;46.56
70916;BME280;58557;50.982;-3.222;2023-02-13T07:45:25;102570.08;;;11.65;46.43
70916;BME280;58557;50.982;-3.222;2023-02-13T07:47:56;102566.86;;;11.16;46.61
70916;BME280;58557;50.982;-3.222;2023-02-13T07:50:17;102562.67;;;11.20;47.34
70916;BME280;58557;50.982;-3.222;2023-02-13T07:52:42;102562.50;;;10.51;48.18
70916;BME280;58557;50.982;-3.222;2023-02-13T07:55:08;102560.74;;;10.31;49.11
70916;BME280;58557;50.982;-3.222;2023-02-13T07:57:35;102562.37;;;10.32;48.51
70916;BME280;58557;50.982;-3.222;2023-02-13T07:59:59;102572.32;;;10.11;48.05
70916;BME280;58557;50.982;-3.222;2023-02-13T08:02:28;102576.90;;;10.73;47.89
70916;BME280;58557;50.982;-3.222;2023-02-13T08:04:49;102577.57;;;10.35;48.46
70916;BME280;58557;50.982;-3.222;2023-02-13T08:07:16;102573.99;;;9.86;50.28
70916;BME280;58557;50.982;-3.222;2023-02-13T08:09:42;102571.78;;;10.64;49.13
70916;BME280;58557;50.982;-3.222;2023-02-13T08:12:11;102568.63;;;10.78;48.56
70916;BME280;58557;50.982;-3.222;2023-02-13T08:14:32;102569.00;;;10.34;48.66
70916;BME280;58557;50.982;-3.222;2023-02-13T08:16:58;102567.04;;;10.81;47.83
70916;BME280;58557;50.982;-3.222;2023-02-13T08:19:23;102565.77;;;11.37;47.15
70916;BME280;58557;50.982;-3.222;2023-02-13T08:21:48;102566.14;;;11.22;46.93
70916;BME280;58557;50.982;-3.222;2023-02-13T08:24:14;102566.00;;;11.00;47.21
70916;BME280;58557;50.982;-3.222;2023-02-13T08:26:39;102569.01;;;10.98;46.53
70916;BME280;58557;50.982;-3.222;2023-02-13T08:29:06;102571.71;;;11.46;46.58
70916;BME280;58557;50.982;-3.222;2023-02-13T08:31:30;102567.47;;;11.52;46.51
70916;BME280;58557;50.982;-3.222;2023-02-13T08:33:55;102570.12;;;11.07;47.18
70916;BME280;58557;50.982;-3.222;2023-02-13T08:36:21;102574.47;;;10.67;47.74
70916;BME280;58557;50.982;-3.222;2023-02-13T08:38:52;102576.28;;;11.66;46.80
70916;BME280;58557;50.982;-3.222;2023-02-13T08:41:12;102576.47;;;11.90;45.98
70916;BME280;58557;50.982;-3.222;2023-02-13T08:43:43;102578.48;;;11.57;45.66
70916;BME280;58557;50.982;-3.222;2023-02-13T08:46:04;102583.39;;;11.87;46.23
70916;BME280;58557;50.982;-3.222;2023-02-13T08:48:28;102581.83;;;10.23;48.27
70916;BME280;58557;50.982;-3.222;2023-02-13T08:50:58;102579.67;;;11.09;47.79
70916;BME280;58557;50.982;-3.222;2023-02-13T08:53:19;102578.19;;;11.79;45.94
70916;BME280;58557;50.982;-3.222;2023-02-13T08:55:52;102581.06;;;11.67;45.76
70916;BME280;58557;50.982;-3.222;2023-02-13T08:58:10;102581.42;;;12.53;43.64
70916;BME280;58557;50.982;-3.222;2023-02-13T09:00:36;102581.78;;;12.25;43.40
70916;BME280;58557;50.982;-3.222;2023-02-13T09:03:01;102578.27;;;12.50;43.95
70916;BME280;58557;50.982;-3.222;2023-02-13T09:05:31;102584.54;;;10.33;48.30
70916;BME280;58557;50.982;-3.222;2023-02-13T09:07:51;102586.82;;;11.68;46.28
70916;BME280;58557;50.982;-3.222;2023-02-13T09:10:17;102582.81;;;12.00;44.91
70916;BME280;58557;50.982;-3.222;2023-02-13T09:12:42;102583.08;;;11.59;47.02
70916;BME280;58557;50.982;-3.222;2023-02-13T09:15:12;102572.59;;;11.83;45.75
70916;BME280;58557;50.982;-3.222;2023-02-13T09:17:33;102576.49;;;10.63;48.64
70916;BME280;58557;50.982;-3.222;2023-02-13T09:19:58;102570.77;;;9.79;50.21
70916;BME280;58557;50.982;-3.222;2023-02-13T09:22:24;102570.50;;;9.29;52.89
70916;BME280;58557;50.982;-3.222;2023-02-13T09:24:50;102569.91;;;10.07;51.08
70916;BME280;58557;50.982;-3.222;2023-02-13T09:27:15;102574.18;;;11.06;48.85
70916;BME280;58557;50.982;-3.222;2023-02-13T09:29:45;102568.08;;;11.13;48.25
70916;BME280;58557;50.982;-3.222;2023-02-13T09:32:06;102569.08;;;11.51;47.97
70916;BME280;58557;50.982;-3.222;2023-02-13T09:34:31;102568.17;;;12.02;45.89
70916;BME280;58557;50.982;-3.222;2023-02-13T09:36:55;102572.94;;;11.29;47.35
70916;BME280;58557;50.982;-3.222;2023-02-13T09:39:21;102574.22;;;12.05;46.20
70916;BME280;58557;50.982;-3.222;2023-02-13T09:41:48;102569.82;;;12.22;45.88
70916;BME280;58557;50.982;-3.222;2023-02-13T09:44:15;102563.84;;;11.50;47.22
70916;BME280;58557;50.982;-3.222;2023-02-13T09:46:38;102568.77;;;11.88;46.42
70916;BME280;58557;50.982;-3.222;2023-02-13T09:49:10;102567.91;;;12.42;45.68
70916;BME280;58557;50.982;-3.222;2023-02-13T09:51:32;102572.32;;;11.84;45.86
70916;BME280;58557;50.982;-3.222;2023-02-13T09:53:55;102573.21;;;11.79;46.15
70916;BME280;58557;50.982;-3.222;2023-02-13T09:56:26;102575.26;;;10.10;50.40
70916;BME280;58557;50.982;-3.222;2023-02-13T09:58:47;102576.94;;;10.97;48.08
70916;BME280;58557;50.982;-3.222;2023-02-13T10:01:17;102581.06;;;10.84;49.06
70916;BME280;58557;50.982;-3.222;2023-02-13T10:03:41;102575.35;;;11.29;48.63
70916;BME280;58557;50.982;-3.222;2023-02-13T10:06:11;102575.42;;;11.71;47.02
70916;BME280;58557;50.982;-3.222;2023-02-13T10:08:38;102579.15;;;11.94;46.22
70916;BME280;58557;50.982;-3.222;2023-02-13T10:11:03;102582.44;;;11.37;48.38
70916;BME280;58557;50.982;-3.222;2023-02-13T10:13:26;102579.28;;;11.18;48.54
70916;BME280;58557;50.982;-3.222;2023-02-13T10:15:47;102581.83;;;11.11;48.23
70916;BME280;58557;50.982;-3.222;2023-02-13T10:18:13;102572.92;;;11.77;48.05
70916;BME280;58557;50.982;-3.222;2023-02-13T10:20:40;102574.23;;;11.81;47.15
70916;BME280;58557;50.982;-3.222;2023-02-13T10:23:07;102576.69;;;11.71;47.39
70916;BME280;58557;50.982;-3.222;2023-02-13T10:25:27;102581.24;;;11.05;48.60
70916;BME280;58557;50.982;-3.222;2023-02-13T10:27:54;102579.57;;;11.44;47.87
70916;BME280;58557;50.982;-3.222;2023-02-13T10:30:19;102582.81;;;10.60;49.62
70916;BME280;58557;50.982;-3.222;2023-02-13T10:32:55;102575.50;;;9.32;52.22
70916;BME280;58557;50.982;-3.222;2023-02-13T10:35:17;102580.22;;;9.78;52.59
70916;BME280;58557;50.982;-3.222;2023-02-13T10:37:34;102582.05;;;8.93;55.28
70916;BME280;58557;50.982;-3.222;2023-02-13T10:39:59;102582.68;;;9.77;54.52
70916;BME280;58557;50.982;-3.222;2023-02-13T10:42:35;102582.96;;;9.43;55.30
70916;BME280;58557;50.982;-3.222;2023-02-13T10:45:02;102575.36;;;9.10;54.95
70916;BME280;58557;50.982;-3.222;2023-02-13T10:47:24;102584.79;;;8.94;54.91
70916;BME280;58557;50.982;-3.222;2023-02-13T10:49:52;102582.26;;;9.53;53.73
70916;BME280;58557;50.982;-3.222;2023-02-13T10:52:14;102580.77;;;9.36;53.85
70916;BME280;58557;50.982;-3.222;2023-02-13T10:57:00;102582.31;;;9.30;54.05
70916;BME280;58557;50.982;-3.222;2023-02-13T11:01:54;102580.39;;;8.99;54.75
70916;BME280;58557;50.982;-3.222;2023-02-13T11:04:17;102582.91;;;8.21;57.87
70916;BME280;58557;50.982;-3.222;2023-02-13T11:06:42;102579.38;;;9.68;54.33
70916;BME280;58557;50.982;-3.222;2023-02-13T11:09:05;102582.95;;;9.73;53.84
70916;BME280;58557;50.982;-3.222;2023-02-13T11:11:32;102590.46;;;10.83;51.08
70916;BME280;58557;50.982;-3.222;2023-02-13T11:14:08;102580.55;;;10.21;51.75
70916;BME280;58557;50.982;-3.222;2023-02-13T11:16:20;102586.20;;;10.45;51.80
70916;BME280;58557;50.982;-3.222;2023-02-13T11:18:51;102585.56;;;10.46;51.85
70916;BME280;58557;50.982;-3.222;2023-02-13T11:21:19;102585.80;;;9.58;53.74
70916;BME280;58557;50.982;-3.222;2023-02-13T11:23:41;102579.32;;;9.98;53.96
70916;BME280;58557;50.982;-3.222;2023-02-13T11:26:04;102580.50;;;10.65;51.16
70916;BME280;58557;50.982;-3.222;2023-02-13T11:28:29;102575.81;;;10.08;53.20
70916;BME280;58557;50.982;-3.222;2023-02-13T11:31:09;102579.47;;;10.99;51.27
70916;BME280;58557;50.982;-3.222;2023-02-13T11:33:23;102575.67;;;11.08;50.46
70916;BME280;58557;50.982;-3.222;2023-02-13T11:35:45;102574.20;;;11.20;49.69
70916;BME280;58557;50.982;-3.222;2023-02-13T11:38:12;102570.23;;;11.15;50.07
70916;BME280;58557;50.982;-3.222;2023-02-13T11:40:36;102569.26;;;11.24;50.54
70916;BME280;58557;50.982;-3.222;2023-02-13T11:43:01;102567.10;;;11.19;48.93
70916;BME280;58557;50.982;-3.222;2023-02-13T11:45:27;102558.51;;;12.02;48.17
70916;BME280;58557;50.982;-3.222;2023-02-13T11:47:53;102552.53;;;12.64;46.95
70916;BME280;58557;50.982;-3.222;2023-02-13T11:50:22;102552.19;;;11.97;47.95
70916;BME280;58557;50.982;-3.222;2023-02-13T11:52:56;102550.79;;;12.00;48.19
70916;BME280;58557;50.982;-3.222;2023-02-13T11:55:25;102547.36;;;11.37;49.02
70916;BME280;58557;50.982;-3.222;2023-02-13T11:57:36;102541.33;;;12.45;47.23
70916;BME280;58557;50.982;-3.222;2023-02-13T12:00:18;102537.08;;;11.65;48.36
70916;BME280;58557;50.982;-3.222;2023-02-13T12:02:27;102532.06;;;11.99;48.46
70916;BME280;58557;50.982;-3.222;2023-02-13T12:07:20;102522.78;;;11.87;48.01
70916;BME280;58557;50.982;-3.222;2023-02-13T12:09:43;102521.93;;;11.87;48.21
70916;BME280;58557;50.982;-3.222;2023-02-13T12:12:14;102523.15;;;12.20;46.77
70916;BME280;58557;50.982;-3.222;2023-02-13T12:14:37;102527.00;;;11.86;47.95
70916;BME280;58557;50.982;-3.222;2023-02-13T12:17:01;102523.85;;;11.88;47.24
70916;BME280;58557;50.982;-3.222;2023-02-13T12:19:30;102526.48;;;12.44;47.01
70916;BME280;58557;50.982;-3.222;2023-02-13T12:22:01;102517.91;;;12.72;46.18
70916;BME280;58557;50.982;-3.222;2023-02-13T12:24:29;102517.37;;;11.94;48.22
70916;BME280;58557;50.982;-3.222;2023-02-13T12:26:41;102517.01;;;12.64;47.58
70916;BME280;58557;50.982;-3.222;2023-02-13T12:29:26;102512.51;;;12.47;45.90
70916;BME280;58557;50.982;-3.222;2023-02-13T12:31:50;102509.64;;;12.31;46.50
70916;BME280;58557;50.982;-3.222;2023-02-13T12:34:13;102507.60;;;12.56;46.44
70916;BME280;58557;50.982;-3.222;2023-02-13T12:36:31;102512.75;;;11.04;48.64
70916;BME280;58557;50.982;-3.222;2023-02-13T12:38:59;102503.65;;;10.35;49.81
70916;BME280;58557;50.982;-3.222;2023-02-13T12:41:17;102495.12;;;11.49;49.05
70916;BME280;58557;50.982;-3.222;2023-02-13T12:43:56;102502.58;;;10.17;50.63
70916;BME280;58557;50.982;-3.222;2023-02-13T12:46:09;102503.44;;;10.44;50.96
70916;BME280;58557;50.982;-3.222;2023-02-13T12:48:37;102496.06;;;10.47;50.46
70916;BME280;58557;50.982;-3.222;2023-02-13T12:51:04;102490.44;;;10.35;50.77
70916;BME280;58557;50.982;-3.222;2023-02-13T12:53:32;102489.60;;;10.48;51.78